sensor_id;sensor_type;location;lat;lon;timestamp;P1;durP1;ratioP1;P2;durP2;ratioP2
4434;SDS011;46552;52.150;8.428;2023-06-10T00:00:45;13.67;;;7.80;;
4434;SDS011;46552;52.150;8.428;2023-06-10T00:03:12;15.03;;;7.47;;
4434;SDS011;46552;52.150;8.428;2023-06-10T00:05:39;14.83;;;7.93;;
4434;SDS011;46552;52.150;8.428;2023-06-10T00:08:07;18.20;;;6.50;;
4434;SDS011;46552;52.150;8.428;2023-06-10T00:10:36;11.47;;;7.20;;
4434;SDS011;46552;52.150;8.428;2023-06-10T00:13:03;15.00;;;7.20;;
4434;SDS011;46552;52.150;8.428;2023-06-10T00:15:34;11.70;;;7.23;;
4434;SDS011;46552;52.150;8.428;2023-06-10T00:18:02;12.30;;;7.50;;
4434;SDS011;46552;52.150;8.428;2023-06-10T00:20:29;13.07;;;7.20;;
4434;SDS011;46552;52.150;8.428;2023-06-10T00:22:57;12.10;;;7.10;;
4434;SDS011;46552;52.150;8.428;2023-06-10T00:25:26;14.60;;;7.97;;
4434;SDS011;46552;52.150;8.428;2023-06-10T00:27:54;18.10;;;7.27;;
4434;SDS011;46552;52.150;8.428;2023-06-10T00:30:22;12.70;;;7.43;;
4434;SDS011;46552;52.150;8.428;2023-06-10T00:32:51;12.97;;;7.23;;
4434;SDS011;46552;52.150;8.428;2023-06-10T00:35:18;14.10;;;6.83;;
4434;SDS011;46552;52.150;8.428;2023-06-10T00:37:45;12.43;;;7.70;;
4434;SDS011;46552;52.150;8.428;2023-06-10T00:40:13;16.93;;;8.47;;
4434;SDS011;46552;52.150;8.428;2023-06-10T00:42:40;12.93;;;7.40;;
4434;SDS011;46552;52.150;8.428;2023-06-10T00:45:08;15.13;;;7.63;;
4434;SDS011;46552;52.150;8.428;2023-06-10T00:47:35;11.73;;;7.77;;
4434;SDS011;46552;52.150;8.428;2023-06-10T00:50:05;16.63;;;8.10;;
4434;SDS011;46552;52.150;8.428;2023-06-10T00:52:33;11.23;;;7.77;;
4434;SDS011;46552;52.150;8.428;2023-06-10T00:55:00;21.70;;;8.23;;
4434;SDS011;46552;52.150;8.428;2023-06-10T00:57:28;16.93;;;7.17;;
4434;SDS011;46552;52.150;8.428;2023-06-10T00:59:55;14.73;;;7.70;;
4434;SDS011;46552;52.150;8.428;2023-06-10T01:02:23;15.50;;;7.83;;
4434;SDS011;46552;52.150;8.428;2023-06-10T01:04:51;17.90;;;7.97;;
4434;SDS011;46552;52.150;8.428;2023-06-10T01:07:22;16.40;;;8.30;;
4434;SDS011;46552;52.150;8.428;2023-06-10T01:09:54;13.20;;;7.73;;
4434;SDS011;46552;52.150;8.428;2023-06-10T01:12:27;13.83;;;7.53;;
4434;SDS011;46552;52.150;8.428;2023-06-10T01:14:58;15.60;;;7.20;;
4434;SDS011;46552;52.150;8.428;2023-06-10T01:17:26;16.40;;;7.43;;
4434;SDS011;46552;52.150;8.428;2023-06-10T01:19:55;22.43;;;8.63;;
4434;SDS011;46552;52.150;8.428;2023-06-10T01:22:26;19.27;;;8.30;;
4434;SDS011;46552;52.150;8.428;2023-06-10T01:24:57;15.60;;;8.87;;
4434;SDS011;46552;52.150;8.428;2023-06-10T01:27:26;16.17;;;8.10;;
4434;SDS011;46552;52.150;8.428;2023-06-10T01:29:58;11.67;;;7.20;;
4434;SDS011;46552;52.150;8.428;2023-06-10T01:32:32;16.30;;;8.03;;
4434;SDS011;46552;52.150;8.428;2023-06-10T01:35:01;14.73;;;7.13;;
4434;SDS011;46552;52.150;8.428;2023-06-10T01:37:34;12.57;;;7.70;;
4434;SDS011;46552;52.150;8.428;2023-06-10T01:40:03;11.83;;;7.83;;
4434;SDS011;46552;52.150;8.428;2023-06-10T01:42:32;12.63;;;7.73;;
4434;SDS011;46552;52.150;8.428;2023-06-10T01:44:59;14.37;;;8.03;;
4434;SDS011;46552;52.150;8.428;2023-06-10T01:47:27;13.57;;;7.50;;
4434;SDS011;46552;52.150;8.428;2023-06-10T01:49:54;10.13;;;7.30;;
4434;SDS011;46552;52.150;8.428;2023-06-10T01:52:21;15.10;;;6.63;;
4434;SDS011;46552;52.150;8.428;2023-06-10T01:54:50;21.10;;;7.60;;
4434;SDS011;46552;52.150;8.428;2023-06-10T01:57:17;13.93;;;7.70;;
4434;SDS011;46552;52.150;8.428;2023-06-10T01:59:45;12.50;;;7.40;;
4434;SDS011;46552;52.150;8.428;2023-06-10T02:02:12;12.83;;;7.07;;
4434;SDS011;46552;52.150;8.428;2023-06-10T02:04:40;12.73;;;6.37;;
4434;SDS011;46552;52.150;8.428;2023-06-10T02:07:07;10.73;;;6.20;;
4434;SDS011;46552;52.150;8.428;2023-06-10T02:09:35;12.20;;;6.50;;
4434;SDS011;46552;52.150;8.428;2023-06-10T02:12:04;16.00;;;7.47;;
4434;SDS011;46552;52.150;8.428;2023-06-10T02:14:32;12.87;;;7.20;;
4434;SDS011;46552;52.150;8.428;2023-06-10T02:17:00;16.97;;;7.30;;
4434;SDS011;46552;52.150;8.428;2023-06-10T02:19:27;20.83;;;8.07;;
4434;SDS011;46552;52.150;8.428;2023-06-10T02:21:55;15.80;;;6.70;;
4434;SDS011;46552;52.150;8.428;2023-06-10T02:24:23;12.40;;;6.60;;
4434;SDS011;46552;52.150;8.428;2023-06-10T02:26:50;10.63;;;6.90;;
4434;SDS011;46552;52.150;8.428;2023-06-10T02:29:19;14.20;;;7.10;;
4434;SDS011;46552;52.150;8.428;2023-06-10T02:31:47;16.90;;;6.90;;
4434;SDS011;46552;52.150;8.428;2023-06-10T02:34:14;16.10;;;7.50;;
4434;SDS011;46552;52.150;8.428;2023-06-10T02:36:42;13.93;;;7.30;;
4434;SDS011;46552;52.150;8.428;2023-06-10T02:39:09;17.13;;;6.13;;
4434;SDS011;46552;52.150;8.428;2023-06-10T02:41:36;12.87;;;7.23;;
4434;SDS011;46552;52.150;8.428;2023-06-10T02:44:04;14.73;;;7.27;;
4434;SDS011;46552;52.150;8.428;2023-06-10T02:46:32;11.33;;;6.07;;
4434;SDS011;46552;52.150;8.428;2023-06-10T02:48:59;14.13;;;6.83;;
4434;SDS011;46552;52.150;8.428;2023-06-10T02:51:27;13.80;;;5.93;;
4434;SDS011;46552;52.150;8.428;2023-06-10T02:53:54;14.73;;;6.70;;
4434;SDS011;46552;52.150;8.428;2023-06-10T02:56:21;17.53;;;6.70;;
4434;SDS011;46552;52.150;8.428;2023-06-10T02:58:49;11.97;;;6.40;;
4434;SDS011;46552;52.150;8.428;2023-06-10T03:01:17;13.63;;;6.60;;
4434;SDS011;46552;52.150;8.428;2023-06-10T03:03:47;14.47;;;6.40;;
4434;SDS011;46552;52.150;8.428;2023-06-10T03:06:15;12.97;;;7.03;;
4434;SDS011;46552;52.150;8.428;2023-06-10T03:08:43;17.13;;;6.20;;
4434;SDS011;46552;52.150;8.428;2023-06-10T03:11:10;19.47;;;6.90;;
4434;SDS011;46552;52.150;8.428;2023-06-10T03:13:38;10.57;;;5.57;;
4434;SDS011;46552;52.150;8.428;2023-06-10T03:16:05;10.90;;;5.63;;
4434;SDS011;46552;52.150;8.428;2023-06-10T03:18:33;9.53;;;5.93;;
4434;SDS011;46552;52.150;8.428;2023-06-10T03:21:01;11.67;;;5.93;;
4434;SDS011;46552;52.150;8.428;2023-06-10T03:23:29;10.10;;;5.67;;
4434;SDS011;46552;52.150;8.428;2023-06-10T03:25:57;15.73;;;6.37;;
4434;SDS011;46552;52.150;8.428;2023-06-10T03:28:24;12.77;;;7.00;;
4434;SDS011;46552;52.150;8.428;2023-06-10T03:30:51;12.70;;;6.37;;
4434;SDS011;46552;52.150;8.428;2023-06-10T03:33:19;13.00;;;5.97;;
4434;SDS011;46552;52.150;8.428;2023-06-10T03:35:46;12.77;;;5.63;;
4434;SDS011;46552;52.150;8.428;2023-06-10T03:38:15;11.90;;;6.63;;
4434;SDS011;46552;52.150;8.428;2023-06-10T03:40:42;14.37;;;5.53;;
4434;SDS011;46552;52.150;8.428;2023-06-10T03:43:09;14.40;;;6.53;;
4434;SDS011;46552;52.150;8.428;2023-06-10T03:45:37;19.83;;;6.63;;
4434;SDS011;46552;52.150;8.428;2023-06-10T03:48:06;11.10;;;6.30;;
4434;SDS011;46552;52.150;8.428;2023-06-10T03:50:34;9.60;;;5.80;;
4434;SDS011;46552;52.150;8.428;2023-06-10T03:53:01;11.30;;;5.63;;
4434;SDS011;46552;52.150;8.428;2023-06-10T03:55:30;9.03;;;5.67;;
4434;SDS011;46552;52.150;8.428;2023-06-10T03:57:57;10.47;;;5.97;;
4434;SDS011;46552;52.150;8.428;2023-06-10T04:00:25;9.13;;;5.33;;
4434;SDS011;46552;52.150;8.428;2023-06-10T04:02:52;11.10;;;5.47;;
4434;SDS011;46552;52.150;8.428;2023-06-10T04:05:23;13.70;;;6.00;;
4434;SDS011;46552;52.150;8.428;2023-06-10T04:07:50;15.80;;;6.33;;
4434;SDS011;46552;52.150;8.428;2023-06-10T04:10:18;15.00;;;5.90;;
4434;SDS011;46552;52.150;8.428;2023-06-10T04:12:47;12.53;;;6.00;;
4434;SDS011;46552;52.150;8.428;2023-06-10T04:15:14;14.30;;;6.37;;
4434;SDS011;46552;52.150;8.428;2023-06-10T04:17:41;13.33;;;6.43;;
4434;SDS011;46552;52.150;8.428;2023-06-10T04:20:09;12.33;;;5.40;;
4434;SDS011;46552;52.150;8.428;2023-06-10T04:22:36;17.07;;;7.50;;
4434;SDS011;46552;52.150;8.428;2023-06-10T04:25:04;11.00;;;6.40;;
4434;SDS011;46552;52.150;8.428;2023-06-10T04:27:32;13.03;;;7.03;;
4434;SDS011;46552;52.150;8.428;2023-06-10T04:30:01;14.90;;;7.00;;
4434;SDS011;46552;52.150;8.428;2023-06-10T04:32:29;13.07;;;7.33;;
4434;SDS011;46552;52.150;8.428;2023-06-10T04:34:56;12.17;;;6.90;;
4434;SDS011;46552;52.150;8.428;2023-06-10T04:37:24;13.83;;;6.70;;
4434;SDS011;46552;52.150;8.428;2023-06-10T04:39:51;13.53;;;7.00;;
4434;SDS011;46552;52.150;8.428;2023-06-10T04:42:18;24.33;;;8.13;;
4434;SDS011;46552;52.150;8.428;2023-06-10T04:44:46;17.90;;;7.23;;
4434;SDS011;46552;52.150;8.428;2023-06-10T04:47:14;15.33;;;7.27;;
4434;SDS011;46552;52.150;8.428;2023-06-10T04:49:42;11.70;;;6.33;;
4434;SDS011;46552;52.150;8.428;2023-06-10T04:52:09;16.73;;;6.73;;
4434;SDS011;46552;52.150;8.428;2023-06-10T04:54:37;17.53;;;6.70;;
4434;SDS011;46552;52.150;8.428;2023-06-10T04:57:05;15.87;;;6.67;;
4434;SDS011;46552;52.150;8.428;2023-06-10T04:59:34;14.90;;;6.40;;
4434;SDS011;46552;52.150;8.428;2023-06-10T05:02:03;13.77;;;6.80;;
4434;SDS011;46552;52.150;8.428;2023-06-10T05:04:32;20.07;;;7.03;;
4434;SDS011;46552;52.150;8.428;2023-06-10T05:06:59;10.90;;;5.57;;
4434;SDS011;46552;52.150;8.428;2023-06-10T05:09:26;11.30;;;6.10;;
4434;SDS011;46552;52.150;8.428;2023-06-10T05:11:53;15.17;;;6.57;;
4434;SDS011;46552;52.150;8.428;2023-06-10T05:14:21;15.13;;;6.50;;
4434;SDS011;46552;52.150;8.428;2023-06-10T05:16:48;19.43;;;6.70;;
4434;SDS011;46552;52.150;8.428;2023-06-10T05:19:15;12.53;;;5.90;;
4434;SDS011;46552;52.150;8.428;2023-06-10T05:21:45;15.50;;;6.60;;
4434;SDS011;46552;52.150;8.428;2023-06-10T05:24:12;16.50;;;6.70;;
4434;SDS011;46552;52.150;8.428;2023-06-10T05:26:39;15.13;;;6.47;;
4434;SDS011;46552;52.150;8.428;2023-06-10T05:29:07;15.00;;;7.17;;
4434;SDS011;46552;52.150;8.428;2023-06-10T05:31:34;13.40;;;6.23;;
4434;SDS011;46552;52.150;8.428;2023-06-10T05:34:01;11.83;;;5.20;;
4434;SDS011;46552;52.150;8.428;2023-06-10T05:36:29;12.37;;;6.07;;
4434;SDS011;46552;52.150;8.428;2023-06-10T05:38:58;11.20;;;5.90;;
4434;SDS011;46552;52.150;8.428;2023-06-10T05:41:25;18.63;;;6.03;;
4434;SDS011;46552;52.150;8.428;2023-06-10T05:43:53;13.57;;;5.00;;
4434;SDS011;46552;52.150;8.428;2023-06-10T05:46:21;13.90;;;6.30;;
4434;SDS011;46552;52.150;8.428;2023-06-10T05:48:48;12.57;;;6.40;;
4434;SDS011;46552;52.150;8.428;2023-06-10T05:51:15;14.07;;;5.80;;
4434;SDS011;46552;52.150;8.428;2023-06-10T05:53:43;16.13;;;6.10;;
4434;SDS011;46552;52.150;8.428;2023-06-10T05:56:12;14.10;;;5.57;;
4434;SDS011;46552;52.150;8.428;2023-06-10T05:58:40;11.07;;;5.47;;
4434;SDS011;46552;52.150;8.428;2023-06-10T06:01:07;23.97;;;6.47;;
4434;SDS011;46552;52.150;8.428;2023-06-10T06:03:34;11.40;;;6.07;;
4434;SDS011;46552;52.150;8.428;2023-06-10T06:06:02;17.30;;;5.90;;
4434;SDS011;46552;52.150;8.428;2023-06-10T06:08:29;13.47;;;6.10;;
4434;SDS011;46552;52.150;8.428;2023-06-10T06:10:57;11.87;;;6.50;;
4434;SDS011;46552;52.150;8.428;2023-06-10T06:13:25;16.93;;;7.33;;
4434;SDS011;46552;52.150;8.428;2023-06-10T06:15:52;18.27;;;6.97;;
4434;SDS011;46552;52.150;8.428;2023-06-10T06:18:20;10.77;;;5.97;;
4434;SDS011;46552;52.150;8.428;2023-06-10T06:20:47;11.97;;;5.20;;
4434;SDS011;46552;52.150;8.428;2023-06-10T06:23:14;30.73;;;6.50;;
4434;SDS011;46552;52.150;8.428;2023-06-10T06:25:42;18.43;;;6.10;;
4434;SDS011;46552;52.150;8.428;2023-06-10T06:28:09;13.03;;;5.60;;
4434;SDS011;46552;52.150;8.428;2023-06-10T06:30:38;15.97;;;6.87;;
4434;SDS011;46552;52.150;8.428;2023-06-10T06:33:05;7.90;;;5.53;;
4434;SDS011;46552;52.150;8.428;2023-06-10T06:35:33;14.10;;;6.10;;
4434;SDS011;46552;52.150;8.428;2023-06-10T06:38:00;11.80;;;5.77;;
4434;SDS011;46552;52.150;8.428;2023-06-10T06:40:29;12.37;;;5.97;;
4434;SDS011;46552;52.150;8.428;2023-06-10T06:42:56;9.93;;;5.53;;
4434;SDS011;46552;52.150;8.428;2023-06-10T06:45:24;12.17;;;5.40;;
4434;SDS011;46552;52.150;8.428;2023-06-10T06:47:53;11.07;;;6.57;;
4434;SDS011;46552;52.150;8.428;2023-06-10T06:50:20;17.00;;;5.27;;
4434;SDS011;46552;52.150;8.428;2023-06-10T06:52:48;12.80;;;5.70;;
4434;SDS011;46552;52.150;8.428;2023-06-10T06:55:15;12.70;;;6.07;;
4434;SDS011;46552;52.150;8.428;2023-06-10T06:57:42;15.50;;;6.60;;
4434;SDS011;46552;52.150;8.428;2023-06-10T07:00:10;9.27;;;5.47;;
4434;SDS011;46552;52.150;8.428;2023-06-10T07:02:39;21.37;;;5.80;;
4434;SDS011;46552;52.150;8.428;2023-06-10T07:05:08;14.23;;;5.33;;
4434;SDS011;46552;52.150;8.428;2023-06-10T07:07:35;12.37;;;5.97;;
4434;SDS011;46552;52.150;8.428;2023-06-10T07:10:03;7.67;;;4.60;;
4434;SDS011;46552;52.150;8.428;2023-06-10T07:12:31;13.60;;;6.17;;
4434;SDS011;46552;52.150;8.428;2023-06-10T07:14:58;11.67;;;5.10;;
4434;SDS011;46552;52.150;8.428;2023-06-10T07:17:25;14.43;;;6.23;;
4434;SDS011;46552;52.150;8.428;2023-06-10T07:19:53;14.03;;;5.90;;
4434;SDS011;46552;52.150;8.428;2023-06-10T07:22:23;11.90;;;4.87;;
4434;SDS011;46552;52.150;8.428;2023-06-10T07:24:51;11.30;;;6.13;;
4434;SDS011;46552;52.150;8.428;2023-06-10T07:27:20;12.50;;;4.90;;
4434;SDS011;46552;52.150;8.428;2023-06-10T07:29:47;20.27;;;5.17;;
4434;SDS011;46552;52.150;8.428;2023-06-10T07:32:15;17.70;;;5.70;;
4434;SDS011;46552;52.150;8.428;2023-06-10T07:34:42;10.60;;;5.70;;
4434;SDS011;46552;52.150;8.428;2023-06-10T07:37:09;11.10;;;5.50;;
4434;SDS011;46552;52.150;8.428;2023-06-10T07:39:38;13.60;;;6.20;;
4434;SDS011;46552;52.150;8.428;2023-06-10T07:42:06;18.13;;;6.20;;
4434;SDS011;46552;52.150;8.428;2023-06-10T07:44:34;10.80;;;5.57;;
4434;SDS011;46552;52.150;8.428;2023-06-10T07:47:01;9.40;;;4.80;;
4434;SDS011;46552;52.150;8.428;2023-06-10T07:49:28;18.23;;;5.50;;
4434;SDS011;46552;52.150;8.428;2023-06-10T07:51:56;9.83;;;6.00;;
4434;SDS011;46552;52.150;8.428;2023-06-10T07:54:23;7.87;;;5.37;;
4434;SDS011;46552;52.150;8.428;2023-06-10T07:56:53;8.00;;;5.23;;
4434;SDS011;46552;52.150;8.428;2023-06-10T07:59:20;9.97;;;6.27;;
4434;SDS011;46552;52.150;8.428;2023-06-10T08:01:47;9.60;;;5.27;;
4434;SDS011;46552;52.150;8.428;2023-06-10T08:04:16;11.77;;;6.03;;
4434;SDS011;46552;52.150;8.428;2023-06-10T08:06:43;13.20;;;5.67;;
4434;SDS011;46552;52.150;8.428;2023-06-10T08:09:10;11.17;;;5.47;;
4434;SDS011;46552;52.150;8.428;2023-06-10T08:11:37;10.07;;;5.60;;
4434;SDS011;46552;52.150;8.428;2023-06-10T08:14:06;15.63;;;6.30;;
4434;SDS011;46552;52.150;8.428;2023-06-10T08:16:33;14.10;;;5.57;;
4434;SDS011;46552;52.150;8.428;2023-06-10T08:19:01;16.80;;;5.87;;
4434;SDS011;46552;52.150;8.428;2023-06-10T08:21:28;10.23;;;5.17;;
4434;SDS011;46552;52.150;8.428;2023-06-10T08:23:56;8.67;;;5.63;;
4434;SDS011;46552;52.150;8.428;2023-06-10T08:26:23;12.57;;;5.33;;
4434;SDS011;46552;52.150;8.428;2023-06-10T08:28:51;8.60;;;4.80;;
4434;SDS011;46552;52.150;8.428;2023-06-10T08:31:20;11.80;;;5.00;;
4434;SDS011;46552;52.150;8.428;2023-06-10T08:33:47;11.40;;;4.93;;
4434;SDS011;46552;52.150;8.428;2023-06-10T08:36:15;12.13;;;5.37;;
4434;SDS011;46552;52.150;8.428;2023-06-10T08:38:42;11.30;;;5.90;;
4434;SDS011;46552;52.150;8.428;2023-06-10T08:41:09;16.20;;;5.27;;
4434;SDS011;46552;52.150;8.428;2023-06-10T08:43:42;9.07;;;4.60;;
4434;SDS011;46552;52.150;8.428;2023-06-10T08:46:11;10.10;;;6.10;;
4434;SDS011;46552;52.150;8.428;2023-06-10T08:48:43;10.20;;;5.13;;
4434;SDS011;46552;52.150;8.428;2023-06-10T08:51:10;8.17;;;4.73;;
4434;SDS011;46552;52.150;8.428;2023-06-10T08:53:38;9.70;;;4.80;;
4434;SDS011;46552;52.150;8.428;2023-06-10T08:56:12;9.00;;;4.20;;
4434;SDS011;46552;52.150;8.428;2023-06-10T08:58:41;8.33;;;4.23;;
4434;SDS011;46552;52.150;8.428;2023-06-10T09:01:08;10.27;;;5.67;;
4434;SDS011;46552;52.150;8.428;2023-06-10T09:03:37;8.20;;;4.33;;
4434;SDS011;46552;52.150;8.428;2023-06-10T09:06:06;9.60;;;4.43;;
4434;SDS011;46552;52.150;8.428;2023-06-10T09:08:34;9.57;;;4.87;;
4434;SDS011;46552;52.150;8.428;2023-06-10T09:11:01;11.70;;;5.10;;
4434;SDS011;46552;52.150;8.428;2023-06-10T09:13:28;11.73;;;5.67;;
4434;SDS011;46552;52.150;8.428;2023-06-10T09:15:56;8.83;;;5.00;;
4434;SDS011;46552;52.150;8.428;2023-06-10T09:18:26;13.00;;;5.03;;
4434;SDS011;46552;52.150;8.428;2023-06-10T09:20:54;10.50;;;5.07;;
4434;SDS011;46552;52.150;8.428;2023-06-10T09:23:23;17.90;;;4.23;;
4434;SDS011;46552;52.150;8.428;2023-06-10T09:25:55;12.70;;;4.50;;
4434;SDS011;46552;52.150;8.428;2023-06-10T09:28:23;7.10;;;3.53;;
4434;SDS011;46552;52.150;8.428;2023-06-10T09:30:50;13.33;;;5.50;;
4434;SDS011;46552;52.150;8.428;2023-06-10T09:33:29;9.63;;;4.37;;
4434;SDS011;46552;52.150;8.428;2023-06-10T09:35:56;7.80;;;3.80;;
4434;SDS011;46552;52.150;8.428;2023-06-10T09:38:30;8.43;;;4.80;;
4434;SDS011;46552;52.150;8.428;2023-06-10T09:40:58;13.43;;;5.23;;
4434;SDS011;46552;52.150;8.428;2023-06-10T09:43:38;8.80;;;4.47;;
4434;SDS011;46552;52.150;8.428;2023-06-10T09:46:06;14.03;;;4.70;;
4434;SDS011;46552;52.150;8.428;2023-06-10T09:48:39;11.27;;;4.83;;
4434;SDS011;46552;52.150;8.428;2023-06-10T09:51:10;9.33;;;5.33;;
4434;SDS011;46552;52.150;8.428;2023-06-10T09:53:39;10.27;;;5.00;;
4434;SDS011;46552;52.150;8.428;2023-06-10T09:56:07;9.97;;;6.83;;
4434;SDS011;46552;52.150;8.428;2023-06-10T09:58:34;9.97;;;5.10;;
4434;SDS011;46552;52.150;8.428;2023-06-10T10:01:04;12.00;;;6.20;;
4434;SDS011;46552;52.150;8.428;2023-06-10T10:03:32;11.30;;;5.27;;
4434;SDS011;46552;52.150;8.428;2023-06-10T10:05:59;14.27;;;5.70;;
4434;SDS011;46552;52.150;8.428;2023-06-10T10:08:27;11.37;;;5.93;;
4434;SDS011;46552;52.150;8.428;2023-06-10T10:10:58;23.90;;;18.97;;
4434;SDS011;46552;52.150;8.428;2023-06-10T10:13:25;9.70;;;5.97;;
4434;SDS011;46552;52.150;8.428;2023-06-10T10:15:53;9.77;;;5.80;;
4434;SDS011;46552;52.150;8.428;2023-06-10T10:18:22;17.47;;;5.60;;
4434;SDS011;46552;52.150;8.428;2023-06-10T10:20:54;8.60;;;5.43;;
4434;SDS011;46552;52.150;8.428;2023-06-10T10:23:24;10.43;;;5.40;;
4434;SDS011;46552;52.150;8.428;2023-06-10T10:26:00;8.10;;;4.90;;
4434;SDS011;46552;52.150;8.428;2023-06-10T10:28:34;10.33;;;5.70;;
4434;SDS011;46552;52.150;8.428;2023-06-10T10:31:08;11.10;;;5.23;;
4434;SDS011;46552;52.150;8.428;2023-06-10T10:33:40;7.83;;;5.40;;
4434;SDS011;46552;52.150;8.428;2023-06-10T10:36:21;9.30;;;4.80;;
4434;SDS011;46552;52.150;8.428;2023-06-10T10:38:48;6.93;;;4.67;;
4434;SDS011;46552;52.150;8.428;2023-06-10T10:41:18;7.00;;;4.70;;
4434;SDS011;46552;52.150;8.428;2023-06-10T10:43:46;9.17;;;4.57;;
4434;SDS011;46552;52.150;8.428;2023-06-10T10:46:16;10.30;;;5.50;;
4434;SDS011;46552;52.150;8.428;2023-06-10T10:48:44;7.40;;;4.50;;
4434;SDS011;46552;52.150;8.428;2023-06-10T10:51:12;7.70;;;4.50;;
4434;SDS011;46552;52.150;8.428;2023-06-10T10:53:42;11.47;;;5.50;;
4434;SDS011;46552;52.150;8.428;2023-06-10T10:56:32;10.57;;;5.10;;
4434;SDS011;46552;52.150;8.428;2023-06-10T10:59:03;7.67;;;5.20;;
4434;SDS011;46552;52.150;8.428;2023-06-10T11:01:39;11.13;;;5.70;;
4434;SDS011;46552;52.150;8.428;2023-06-10T11:04:07;19.53;;;5.00;;
4434;SDS011;46552;52.150;8.428;2023-06-10T11:06:35;9.80;;;4.17;;
4434;SDS011;46552;52.150;8.428;2023-06-10T11:09:04;13.03;;;5.07;;
4434;SDS011;46552;52.150;8.428;2023-06-10T11:11:54;14.73;;;5.80;;
4434;SDS011;46552;52.150;8.428;2023-06-10T11:14:28;10.20;;;5.23;;
4434;SDS011;46552;52.150;8.428;2023-06-10T11:16:57;6.67;;;4.50;;
4434;SDS011;46552;52.150;8.428;2023-06-10T11:19:31;8.40;;;5.33;;
4434;SDS011;46552;52.150;8.428;2023-06-10T11:22:00;9.07;;;4.63;;
4434;SDS011;46552;52.150;8.428;2023-06-10T11:24:28;6.47;;;4.50;;
4434;SDS011;46552;52.150;8.428;2023-06-10T11:26:56;11.70;;;4.90;;
4434;SDS011;46552;52.150;8.428;2023-06-10T11:29:54;10.80;;;5.37;;
4434;SDS011;46552;52.150;8.428;2023-06-10T11:32:23;7.17;;;4.67;;
4434;SDS011;46552;52.150;8.428;2023-06-10T11:34:52;8.27;;;4.67;;
4434;SDS011;46552;52.150;8.428;2023-06-10T11:37:20;12.23;;;5.17;;
4434;SDS011;46552;52.150;8.428;2023-06-10T11:39:51;10.27;;;5.03;;
4434;SDS011;46552;52.150;8.428;2023-06-10T11:42:20;8.00;;;3.87;;
4434;SDS011;46552;52.150;8.428;2023-06-10T11:44:48;11.33;;;5.30;;
4434;SDS011;46552;52.150;8.428;2023-06-10T11:47:16;8.70;;;4.27;;
4434;SDS011;46552;52.150;8.428;2023-06-10T11:49:44;6.90;;;4.47;;
4434;SDS011;46552;52.150;8.428;2023-06-10T11:52:11;6.10;;;3.83;;
4434;SDS011;46552;52.150;8.428;2023-06-10T11:54:38;9.43;;;4.30;;
4434;SDS011;46552;52.150;8.428;2023-06-10T11:57:06;8.80;;;4.27;;
4434;SDS011;46552;52.150;8.428;2023-06-10T11:59:35;5.77;;;4.10;;
4434;SDS011;46552;52.150;8.428;2023-06-10T12:02:03;9.17;;;5.00;;
4434;SDS011;46552;52.150;8.428;2023-06-10T12:04:30;5.60;;;3.77;;
4434;SDS011;46552;52.150;8.428;2023-06-10T12:06:58;7.20;;;4.20;;
4434;SDS011;46552;52.150;8.428;2023-06-10T12:09:26;9.77;;;4.00;;
4434;SDS011;46552;52.150;8.428;2023-06-10T12:11:56;9.30;;;4.60;;
4434;SDS011;46552;52.150;8.428;2023-06-10T12:17:21;6.37;;;4.20;;
4434;SDS011;46552;52.150;8.428;2023-06-10T12:19:49;6.80;;;4.13;;
4434;SDS011;46552;52.150;8.428;2023-06-10T12:22:16;8.53;;;3.83;;
4434;SDS011;46552;52.150;8.428;2023-06-10T12:24:44;7.80;;;4.67;;
4434;SDS011;46552;52.150;8.428;2023-06-10T12:27:24;7.87;;;4.00;;
4434;SDS011;46552;52.150;8.428;2023-06-10T12:29:56;11.57;;;4.20;;
4434;SDS011;46552;52.150;8.428;2023-06-10T12:32:35;7.47;;;4.50;;
4434;SDS011;46552;52.150;8.428;2023-06-10T12:35:04;7.90;;;4.53;;
4434;SDS011;46552;52.150;8.428;2023-06-10T12:37:32;6.50;;;4.30;;
4434;SDS011;46552;52.150;8.428;2023-06-10T12:40:00;7.20;;;4.33;;
4434;SDS011;46552;52.150;8.428;2023-06-10T12:42:28;5.57;;;3.33;;
4434;SDS011;46552;52.150;8.428;2023-06-10T12:44:58;5.60;;;3.93;;
4434;SDS011;46552;52.150;8.428;2023-06-10T12:47:29;5.73;;;4.27;;
4434;SDS011;46552;52.150;8.428;2023-06-10T12:49:58;6.73;;;4.67;;
4434;SDS011;46552;52.150;8.428;2023-06-10T12:52:25;15.17;;;5.13;;
4434;SDS011;46552;52.150;8.428;2023-06-10T12:54:52;8.70;;;3.83;;
4434;SDS011;46552;52.150;8.428;2023-06-10T12:57:20;12.83;;;4.30;;
4434;SDS011;46552;52.150;8.428;2023-06-10T12:59:47;11.80;;;4.40;;
4434;SDS011;46552;52.150;8.428;2023-06-10T13:02:19;8.87;;;4.33;;
4434;SDS011;46552;52.150;8.428;2023-06-10T13:04:48;9.70;;;4.27;;
4434;SDS011;46552;52.150;8.428;2023-06-10T13:07:16;6.40;;;4.00;;
4434;SDS011;46552;52.150;8.428;2023-06-10T13:09:44;6.50;;;3.97;;
4434;SDS011;46552;52.150;8.428;2023-06-10T13:12:13;9.30;;;4.70;;
4434;SDS011;46552;52.150;8.428;2023-06-10T13:14:42;8.33;;;4.67;;
4434;SDS011;46552;52.150;8.428;2023-06-10T13:17:10;11.63;;;4.57;;
4434;SDS011;46552;52.150;8.428;2023-06-10T13:19:39;7.90;;;4.73;;
4434;SDS011;46552;52.150;8.428;2023-06-10T13:22:06;14.70;;;4.17;;
4434;SDS011;46552;52.150;8.428;2023-06-10T13:24:34;7.63;;;3.93;;
4434;SDS011;46552;52.150;8.428;2023-06-10T13:27:01;9.53;;;4.40;;
4434;SDS011;46552;52.150;8.428;2023-06-10T13:29:28;11.90;;;4.27;;
4434;SDS011;46552;52.150;8.428;2023-06-10T13:31:56;7.77;;;4.27;;
4434;SDS011;46552;52.150;8.428;2023-06-10T13:34:23;8.27;;;4.87;;
4434;SDS011;46552;52.150;8.428;2023-06-10T13:36:52;7.00;;;4.30;;
4434;SDS011;46552;52.150;8.428;2023-06-10T13:39:20;6.87;;;5.00;;
4434;SDS011;46552;52.150;8.428;2023-06-10T13:41:47;6.70;;;4.60;;
4434;SDS011;46552;52.150;8.428;2023-06-10T13:44:14;7.30;;;4.13;;
4434;SDS011;46552;52.150;8.428;2023-06-10T13:46:41;9.73;;;4.10;;
4434;SDS011;46552;52.150;8.428;2023-06-10T13:49:09;7.80;;;5.03;;
4434;SDS011;46552;52.150;8.428;2023-06-10T13:51:36;9.87;;;5.17;;
4434;SDS011;46552;52.150;8.428;2023-06-10T13:54:05;15.90;;;4.53;;
4434;SDS011;46552;52.150;8.428;2023-06-10T13:56:32;9.57;;;5.47;;
4434;SDS011;46552;52.150;8.428;2023-06-10T13:59:03;8.10;;;4.90;;
4434;SDS011;46552;52.150;8.428;2023-06-10T14:01:30;6.77;;;4.83;;
4434;SDS011;46552;52.150;8.428;2023-06-10T14:03:58;6.80;;;4.20;;
4434;SDS011;46552;52.150;8.428;2023-06-10T14:06:26;9.20;;;4.60;;
4434;SDS011;46552;52.150;8.428;2023-06-10T14:08:54;12.10;;;5.23;;
4434;SDS011;46552;52.150;8.428;2023-06-10T14:11:23;11.47;;;5.33;;
4434;SDS011;46552;52.150;8.428;2023-06-10T14:13:50;9.40;;;4.93;;
4434;SDS011;46552;52.150;8.428;2023-06-10T14:16:17;8.93;;;4.60;;
4434;SDS011;46552;52.150;8.428;2023-06-10T14:18:44;7.10;;;4.93;;
4434;SDS011;46552;52.150;8.428;2023-06-10T14:21:12;8.10;;;4.53;;
4434;SDS011;46552;52.150;8.428;2023-06-10T14:23:39;10.30;;;4.27;;
4434;SDS011;46552;52.150;8.428;2023-06-10T14:26:06;10.47;;;4.07;;
4434;SDS011;46552;52.150;8.428;2023-06-10T14:28:35;10.63;;;5.50;;
4434;SDS011;46552;52.150;8.428;2023-06-10T14:31:02;10.17;;;5.03;;
4434;SDS011;46552;52.150;8.428;2023-06-10T14:33:29;8.57;;;4.90;;
4434;SDS011;46552;52.150;8.428;2023-06-10T14:35:57;9.63;;;6.13;;
4434;SDS011;46552;52.150;8.428;2023-06-10T14:38:24;8.50;;;4.97;;
4434;SDS011;46552;52.150;8.428;2023-06-10T14:40:52;9.67;;;5.70;;
4434;SDS011;46552;52.150;8.428;2023-06-10T14:43:19;8.17;;;4.83;;
4434;SDS011;46552;52.150;8.428;2023-06-10T14:45:48;6.53;;;4.90;;
4434;SDS011;46552;52.150;8.428;2023-06-10T14:48:16;12.60;;;5.03;;
4434;SDS011;46552;52.150;8.428;2023-06-10T14:50:43;9.07;;;5.13;;
4434;SDS011;46552;52.150;8.428;2023-06-10T14:53:15;9.33;;;5.30;;
4434;SDS011;46552;52.150;8.428;2023-06-10T14:55:43;8.90;;;5.03;;
4434;SDS011;46552;52.150;8.428;2023-06-10T14:58:10;8.77;;;5.27;;
4434;SDS011;46552;52.150;8.428;2023-06-10T15:00:38;11.27;;;5.97;;
4434;SDS011;46552;52.150;8.428;2023-06-10T15:03:07;8.90;;;5.97;;